Time;durP1;ratioP1;P1;durP2;ratioP2;P2;SDS_P1;SDS_P2;PMS_P1;PMS_P2;Temp;Humidity;BMP_temperature;BMP_pressure;BME280_temperature;BME280_humidity;BME280_pressure;Samples;Min_cycle;Max_cycle;Signal;HPM_P1;HPM_P2
2023/08/17 00:01:39;;;;;;;5.10;1.85;;;17.30;99.90;;;;;;5007977;28;20550;-57
2023/08/17 00:04:04;;;;;;;6.68;1.90;;;17.40;99.90;;;;;;5007423;28;20113;-57
2023/08/17 00:06:30;;;;;;;5.57;1.60;;;17.30;99.90;;;;;;5007442;28;20042;-56
2023/08/17 00:08:55;;;;;;;6.60;1.65;;;17.40;99.90;;;;;;5007771;28;20587;-57
2023/08/17 00:11:21;;;;;;;4.07;1.60;;;17.40;99.90;;;;;;5007744;28;20073;-58
2023/08/17 00:13:47;;;;;;;6.25;1.60;;;17.40;99.90;;;;;;5006303;28;20045;-56
2023/08/17 00:16:13;;;;;;;;;;;17.30;99.90;;;;;;5006306;28;20539;-56
2023/08/17 00:18:38;;;;;;;4.47;1.55;;;17.20;99.90;;;;;;5007782;28;25145;-57
2023/08/17 00:21:04;;;;;;;6.90;1.90;;;17.20;99.90;;;;;;5007216;28;20553;-55
2023/08/17 00:23:29;;;;;;;5.57;1.65;;;17.20;99.90;;;;;;5007472;28;20072;-57
2023/08/17 00:25:58;;;;;;;8.88;1.92;;;17.30;99.90;;;;;;5006313;28;20500;-56
2023/08/17 00:28:23;;;;;;;4.45;1.58;;;17.30;99.90;;;;;;5007622;28;20041;-58
2023/08/17 00:30:50;;;;;;;6.72;1.80;;;17.20;99.90;;;;;;5007413;28;20160;-56
2023/08/17 00:33:15;;;;;;;4.40;1.75;;;17.20;99.90;;;;;;5006803;28;20385;-58
2023/08/17 00:35:41;;;;;;;5.10;1.42;;;17.20;99.90;;;;;;5006676;28;20051;-58
2023/08/17 00:38:07;;;;;;;5.07;1.65;;;17.20;99.90;;;;;;5007631;28;20052;-57
2023/08/17 00:40:33;;;;;;;2.90;1.33;;;17.20;99.90;;;;;;5006646;28;20108;-59
2023/08/17 00:42:59;;;;;;;8.07;1.50;;;17.10;99.90;;;;;;5007389;28;20112;-57
2023/08/17 00:45:26;;;;;;;2.72;1.42;;;17.00;99.90;;;;;;5006797;28;20528;-58
2023/08/17 00:47:53;;;;;;;5.03;1.50;;;17.10;99.90;;;;;;5006686;28;20050;-56
2023/08/17 00:50:19;;;;;;;4.90;1.38;;;17.10;99.90;;;;;;5006379;28;20069;-58
2023/08/17 00:52:44;;;;;;;4.95;1.50;;;17.10;99.90;;;;;;5007000;28;20553;-58
2023/08/17 00:55:11;;;;;;;3.17;1.60;;;17.10;99.90;;;;;;5006320;28;20259;-59
2023/08/17 00:57:37;;;;;;;3.30;1.58;;;17.10;99.90;;;;;;5006612;28;20081;-58
2023/08/17 01:00:04;;;;;;;4.18;1.75;;;17.10;99.90;;;;;;5007081;28;20092;-58
2023/08/17 01:02:31;;;;;;;7.13;1.95;;;17.10;99.90;;;;;;5006075;28;20054;-58
2023/08/17 01:04:57;;;;;;;5.00;1.73;;;17.10;99.90;;;;;;5005631;28;20129;-58
2023/08/17 01:07:22;;;;;;;3.75;1.35;;;17.10;99.90;;;;;;5006558;28;20129;-59
2023/08/17 01:09:48;;;;;;;5.65;1.42;;;17.00;99.90;;;;;;5006729;28;20405;-58
2023/08/17 01:12:24;;;;;;;4.45;1.70;;;17.00;99.90;;;;;;5006697;28;20096;-57
2023/08/17 01:14:53;;;;;;;5.75;1.50;;;17.00;99.90;;;;;;5006843;28;20077;-60
2023/08/17 01:17:47;;;;;;;6.55;1.55;;;17.00;99.90;;;;;;5006666;28;20136;-58
2023/08/17 01:20:14;;;;;;;6.53;2.00;;;17.00;99.90;;;;;;5005556;28;20034;-58
2023/08/17 01:22:46;;;;;;;4.65;1.40;;;17.00;99.90;;;;;;5006943;28;20076;-58
2023/08/17 01:25:12;;;;;;;4.15;1.63;;;17.10;99.90;;;;;;5006408;28;20053;-58
2023/08/17 01:27:43;;;;;;;4.93;1.73;;;17.10;99.90;;;;;;5006591;28;20501;-57
2023/08/17 01:30:11;;;;;;;9.50;1.95;;;17.10;99.90;;;;;;5006683;28;20056;-56
2023/08/17 01:32:50;;;;;;;5.97;2.00;;;17.10;99.90;;;;;;5004751;28;20125;-58
2023/08/17 01:35:37;;;;;;;6.28;1.88;;;17.10;99.90;;;;;;5005115;28;20407;-58
2023/08/17 01:38:07;;;;;;;4.35;1.85;;;17.10;99.90;;;;;;5005668;28;20435;-57
2023/08/17 01:40:33;;;;;;;5.40;1.83;;;17.00;99.90;;;;;;5006347;28;20131;-58
2023/08/17 01:43:01;;;;;;;7.00;2.10;;;17.00;99.90;;;;;;5006291;28;20184;-57
2023/08/17 01:45:27;;;;;;;4.22;1.70;;;17.00;99.90;;;;;;5003880;28;20046;-57
2023/08/17 01:47:52;;;;;;;4.68;1.80;;;17.10;99.90;;;;;;5006039;28;20046;-56
2023/08/17 01:50:18;;;;;;;4.82;1.83;;;17.00;99.90;;;;;;5004999;28;20052;-58
2023/08/17 01:52:44;;;;;;;5.35;1.85;;;17.00;99.90;;;;;;5005395;28;20056;-58
2023/08/17 01:55:09;;;;;;;5.13;2.13;;;17.00;99.90;;;;;;5005443;28;20038;-56
2023/08/17 01:57:38;;;;;;;5.93;2.08;;;16.90;99.90;;;;;;5005536;28;20045;-58
2023/08/17 02:00:10;;;;;;;8.50;2.17;;;17.10;99.90;;;;;;5005830;28;20050;-58
2023/08/17 02:02:36;;;;;;;6.18;2.13;;;17.00;99.90;;;;;;5005915;28;20133;-58
2023/08/17 02:05:02;;;;;;;6.50;2.40;;;17.00;99.90;;;;;;5004833;28;20149;-59
2023/08/17 02:07:28;;;;;;;5.95;2.50;;;17.00;99.90;;;;;;5005216;28;20084;-55
2023/08/17 02:09:54;;;;;;;5.00;2.08;;;17.00;99.90;;;;;;5004751;28;20128;-56
2023/08/17 02:12:19;;;;;;;5.07;2.17;;;17.00;99.90;;;;;;5005143;28;20134;-57
2023/08/17 02:14:45;;;;;;;7.03;2.42;;;17.00;99.90;;;;;;5005424;28;20081;-58
2023/08/17 02:17:11;;;;;;;7.43;2.40;;;17.00;99.90;;;;;;5004154;28;20049;-58
2023/08/17 02:19:36;;;;;;;5.30;2.25;;;17.00;99.90;;;;;;5004834;28;20432;-58
2023/08/17 02:22:03;;;;;;;7.65;2.80;;;17.00;99.90;;;;;;5005401;28;20042;-58
2023/08/17 02:24:28;;;;;;;6.93;2.00;;;17.00;99.90;;;;;;5005669;28;20045;-58
2023/08/17 02:26:54;;;;;;;5.88;2.47;;;17.00;99.90;;;;;;5004717;28;20037;-57
2023/08/17 02:29:20;;;;;;;4.85;2.05;;;17.00;99.90;;;;;;5005572;28;20040;-58
2023/08/17 02:31:45;;;;;;;6.03;2.25;;;17.00;99.90;;;;;;5003643;28;20421;-58
2023/08/17 02:34:11;;;;;;;8.30;2.50;;;17.00;99.90;;;;;;5003889;28;20089;-57
2023/08/17 02:36:36;;;;;;;7.22;2.45;;;16.90;99.90;;;;;;5005121;28;20061;-58
2023/08/17 02:39:03;;;;;;;6.20;2.65;;;16.90;99.90;;;;;;5005206;28;20046;-56
2023/08/17 02:41:30;;;;;;;5.72;2.40;;;17.00;99.90;;;;;;5005172;28;20041;-58
2023/08/17 02:43:56;;;;;;;5.85;2.17;;;16.90;99.90;;;;;;5003565;28;20125;-58
2023/08/17 02:46:21;;;;;;;7.20;2.50;;;16.90;99.90;;;;;;5004891;28;20557;-56
2023/08/17 02:48:47;;;;;;;5.20;2.00;;;17.10;99.90;;;;;;5003771;28;20542;-58
2023/08/17 02:51:13;;;;;;;7.97;2.65;;;16.90;99.90;;;;;;5004507;28;20049;-59
2023/08/17 02:53:39;;;;;;;9.20;2.47;;;16.90;99.90;;;;;;5004071;28;20033;-58
2023/08/17 02:56:05;;;;;;;8.15;2.28;;;16.90;99.90;;;;;;5004550;28;20056;-58
2023/08/17 02:58:30;;;;;;;6.82;2.28;;;16.80;99.90;;;;;;5004714;28;20466;-55
2023/08/17 03:00:56;;;;;;;9.55;2.80;;;16.90;99.90;;;;;;5004164;28;20393;-59
2023/08/17 03:03:21;;;;;;;5.45;2.47;;;16.80;99.90;;;;;;5004304;28;20045;-59
2023/08/17 03:05:47;;;;;;;8.48;2.53;;;16.80;99.90;;;;;;5004654;28;20099;-54
2023/08/17 03:08:13;;;;;;;6.32;2.90;;;16.90;99.90;;;;;;5002188;28;20397;-58
2023/08/17 03:10:38;;;;;;;5.35;2.40;;;16.80;99.90;;;;;;5002391;28;20331;-56
2023/08/17 03:13:04;;;;;;;8.02;2.42;;;16.80;99.90;;;;;;5003705;28;20480;-54
2023/08/17 03:15:30;;;;;;;5.65;2.20;;;16.80;99.90;;;;;;5002518;28;20484;-58
2023/08/17 03:17:56;;;;;;;7.80;2.50;;;16.80;99.90;;;;;;5003561;28;20100;-58
2023/08/17 03:20:21;;;;;;;6.72;2.35;;;16.80;99.90;;;;;;5003132;28;20124;-58
2023/08/17 03:22:47;;;;;;;8.48;3.40;;;16.80;99.90;;;;;;5003937;28;20038;-58
2023/08/17 03:25:12;;;;;;;7.07;2.17;;;16.80;99.90;;;;;;5003466;28;20033;-58
2023/08/17 03:27:38;;;;;;;5.38;2.00;;;16.80;99.90;;;;;;5007324;28;20050;-61
2023/08/17 03:30:05;;;;;;;4.72;2.20;;;16.70;99.90;;;;;;5007865;28;20380;-59
2023/08/17 03:32:30;;;;;;;5.05;2.00;;;16.80;99.90;;;;;;5007625;28;20042;-59
2023/08/17 03:34:56;;;;;;;5.10;2.10;;;16.80;99.90;;;;;;5006585;28;20141;-63
2023/08/17 03:37:22;;;;;;;6.78;2.33;;;16.70;99.90;;;;;;5007501;28;20103;-58
2023/08/17 03:39:47;;;;;;;7.57;2.28;;;17.00;99.90;;;;;;5007504;28;20038;-58
2023/08/17 03:42:13;;;;;;;7.18;2.03;;;16.70;99.90;;;;;;5007193;28;20687;-58
2023/08/17 03:44:39;;;;;;;7.45;2.13;;;16.70;99.90;;;;;;5006423;28;20459;-58
2023/08/17 03:47:04;;;;;;;7.45;2.40;;;16.70;99.90;;;;;;5007161;28;20452;-59
2023/08/17 03:49:30;;;;;;;4.60;2.10;;;16.70;99.90;;;;;;5007435;28;20049;-59
2023/08/17 03:51:55;;;;;;;5.97;1.98;;;16.60;99.90;;;;;;5006488;28;20046;-59
2023/08/17 03:54:21;;;;;;;7.68;2.30;;;16.60;99.90;;;;;;5008292;28;20313;-58
2023/08/17 03:56:47;;;;;;;6.57;2.08;;;16.50;99.90;;;;;;5007562;28;20064;-58
2023/08/17 03:59:13;;;;;;;6.22;2.30;;;16.60;99.90;;;;;;5007914;28;20046;-58
2023/08/17 04:01:39;;;;;;;8.27;2.35;;;16.60;99.90;;;;;;5007089;28;20137;-58
2023/08/17 04:04:05;;;;;;;4.88;1.70;;;16.60;99.90;;;;;;5006283;28;20141;-58
2023/08/17 04:06:30;;;;;;;6.50;2.20;;;16.60;99.90;;;;;;5007533;28;20041;-58
2023/08/17 04:08:56;;;;;;;5.68;2.10;;;16.60;99.90;;;;;;5006985;28;20562;-56
2023/08/17 04:11:21;;;;;;;4.80;1.85;;;16.50;99.90;;;;;;5007499;28;20053;-59
2023/08/17 04:13:47;;;;;;;7.28;2.30;;;16.50;99.90;;;;;;5007860;28;20046;-56
2023/08/17 04:16:13;;;;;;;8.55;2.40;;;16.50;99.90;;;;;;5007260;28;20077;-59
2023/08/17 04:18:38;;;;;;;7.90;2.30;;;16.50;99.90;;;;;;5007044;28;20054;-58
2023/08/17 04:21:04;;;;;;;10.98;2.58;;;16.50;99.90;;;;;;5007199;28;20128;-58
2023/08/17 04:23:29;;;;;;;7.07;2.20;;;16.40;99.90;;;;;;5006383;28;20042;-58
2023/08/17 04:25:55;;;;;;;8.43;2.38;;;16.40;99.90;;;;;;5006845;28;20066;-57
2023/08/17 04:28:21;;;;;;;8.95;2.42;;;16.40;99.90;;;;;;5006637;28;20053;-57
2023/08/17 04:30:46;;;;;;;4.75;2.13;;;16.40;99.90;;;;;;5007598;28;20085;-55
2023/08/17 04:33:12;;;;;;;5.10;2.30;;;16.40;99.90;;;;;;5005860;28;20417;-59
2023/08/17 04:35:39;;;;;;;6.05;2.65;;;16.40;99.90;;;;;;5007341;28;20491;-58
2023/08/17 04:38:04;;;;;;;6.55;2.40;;;16.40;99.90;;;;;;5007224;28;20154;-57
2023/08/17 04:40:31;;;;;;;8.63;2.40;;;16.40;99.90;;;;;;5007376;28;20117;-58
2023/08/17 04:42:57;;;;;;;9.43;2.42;;;16.40;99.90;;;;;;5006926;28;20053;-59
2023/08/17 04:45:23;;;;;;;6.90;2.25;;;16.40;99.90;;;;;;5006955;28;20583;-58
2023/08/17 04:47:49;;;;;;;6.45;2.40;;;16.40;99.90;;;;;;5007975;28;20077;-57
2023/08/17 04:50:16;;;;;;;9.48;2.50;;;16.30;99.90;;;;;;5005628;28;20042;-58
2023/08/17 04:52:45;;;;;;;8.55;2.60;;;16.40;99.90;;;;;;5006988;28;20077;-59
2023/08/17 04:55:13;;;;;;;7.43;2.72;;;16.40;99.90;;;;;;5006430;28;20553;-56
2023/08/17 04:57:39;;;;;;;9.40;2.75;;;16.40;99.90;;;;;;5006194;28;20049;-56
2023/08/17 05:00:09;;;;;;;8.82;2.28;;;16.40;99.90;;;;;;5006910;28;20037;-55
2023/08/17 05:02:35;;;;;;;7.68;2.65;;;16.40;99.90;;;;;;5006729;28;20088;-57
2023/08/17 05:05:03;;;;;;;5.68;2.08;;;16.40;99.90;;;;;;5005453;28;20038;-56
2023/08/17 05:07:29;;;;;;;6.65;2.45;;;16.40;99.90;;;;;;5006523;28;20112;-58
2023/08/17 05:09:55;;;;;;;5.68;2.30;;;16.40;99.90;;;;;;5006997;28;20049;-58
2023/08/17 05:12:20;;;;;;;6.65;2.50;;;16.40;99.90;;;;;;5007154;28;20712;-58
2023/08/17 05:14:46;;;;;;;4.70;2.10;;;16.40;99.90;;;;;;5005937;28;20042;-56
2023/08/17 05:17:11;;;;;;;7.90;2.33;;;16.30;99.90;;;;;;5006492;28;20694;-59
2023/08/17 05:19:39;;;;;;;9.05;2.53;;;16.60;99.90;;;;;;5005732;28;20065;-58
2023/08/17 05:22:08;;;;;;;5.53;2.17;;;16.30;99.90;;;;;;5005787;28;20115;-58
2023/08/17 05:24:34;;;;;;;7.88;2.15;;;16.30;99.90;;;;;;5006574;28;20108;-58
2023/08/17 05:26:59;;;;;;;9.70;2.50;;;16.30;99.90;;;;;;5006600;28;20038;-58
2023/08/17 05:29:25;;;;;;;7.95;2.13;;;16.30;99.90;;;;;;5006392;28;20081;-58
2023/08/17 05:31:51;;;;;;;5.30;2.50;;;16.30;99.90;;;;;;5006485;28;20112;-58
2023/08/17 05:34:17;;;;;;;7.40;2.42;;;16.30;99.90;;;;;;5005368;28;20046;-58
2023/08/17 05:36:42;;;;;;;6.13;2.50;;;16.40;99.90;;;;;;5005931;28;20417;-57
2023/08/17 05:39:09;;;;;;;4.82;2.03;;;16.30;99.90;;;;;;5005670;28;20052;-58
2023/08/17 05:41:34;;;;;;;6.38;2.10;;;16.30;99.90;;;;;;5006134;28;20050;-58
2023/08/17 05:44:00;;;;;;;7.90;2.60;;;16.30;99.90;;;;;;5005778;28;20180;-58
2023/08/17 05:46:26;;;;;;;6.25;2.15;;;16.30;99.90;;;;;;4987849;28;20080;-58
2023/08/17 05:48:51;;;;;;;4.15;1.92;;;16.40;99.90;;;;;;5004859;28;20083;-57
2023/08/17 05:51:17;;;;;;;7.47;2.10;;;16.30;99.90;;;;;;5005437;28;20053;-58
2023/08/17 05:53:42;;;;;;;7.97;2.53;;;16.40;99.90;;;;;;5005983;28;20103;-58
2023/08/17 05:56:08;;;;;;;6.43;2.53;;;16.30;99.90;;;;;;5004618;28;20034;-57
2023/08/17 05:58:33;;;;;;;7.43;2.30;;;16.40;99.90;;;;;;5005389;28;20378;-58
2023/08/17 06:01:10;;;;;;;6.45;1.92;;;16.50;99.90;;;;;;5005578;28;20081;-58
2023/08/17 06:03:36;;;;;;;6.03;2.08;;;16.50;99.90;;;;;;5003813;28;20049;-57
2023/08/17 06:06:03;;;;;;;5.75;2.08;;;16.60;99.90;;;;;;5005607;28;20050;-57
2023/08/17 06:08:29;;;;;;;8.27;2.30;;;16.60;99.90;;;;;;5005422;28;20469;-58
2023/08/17 06:10:55;;;;;;;10.75;2.28;;;16.60;99.90;;;;;;5005089;28;20049;-56
2023/08/17 06:13:21;;;;;;;7.50;1.73;;;16.80;99.90;;;;;;5004608;28;20081;-59
2023/08/17 06:15:46;;;;;;;7.45;2.10;;;16.80;99.90;;;;;;5005162;28;20456;-57
2023/08/17 06:18:12;;;;;;;5.95;2.17;;;16.90;99.90;;;;;;5004433;28;20496;-57
2023/08/17 06:20:38;;;;;;;8.80;2.00;;;16.90;99.90;;;;;;5004816;28;20413;-58
2023/08/17 06:23:03;;;;;;;6.28;1.80;;;17.00;99.90;;;;;;5005207;28;20129;-56
2023/08/17 06:25:29;;;;;;;4.65;1.77;;;17.00;99.90;;;;;;5004827;28;20451;-58
2023/08/17 06:27:55;;;;;;;4.70;1.92;;;17.10;99.90;;;;;;5009720;28;20053;-58
2023/08/17 06:30:21;;;;;;;5.68;1.50;;;17.10;99.90;;;;;;5013137;28;20042;-59
2023/08/17 06:32:46;;;;;;;5.93;2.25;;;17.10;99.90;;;;;;5009229;28;20046;-59
2023/08/17 06:35:12;;;;;;;5.05;1.70;;;17.10;99.90;;;;;;5004886;28;20222;-59
2023/08/17 06:37:38;;;;;;;10.05;1.80;;;17.20;99.90;;;;;;5004448;28;20045;-59
2023/08/17 06:40:05;;;;;;;4.97;1.52;;;17.10;99.90;;;;;;5005084;28;20056;-58
2023/08/17 06:42:31;;;;;;;5.30;1.63;;;17.10;99.90;;;;;;5005238;28;20096;-58
2023/08/17 06:44:56;;;;;;;6.18;1.85;;;17.10;99.90;;;;;;5005171;28;20045;-56
2023/08/17 06:47:22;;;;;;;5.40;1.60;;;17.10;99.90;;;;;;5004943;28;20061;-58
2023/08/17 06:49:48;;;;;;;7.80;2.05;;;17.10;99.90;;;;;;5007913;28;20069;-58
2023/08/17 06:52:13;;;;;;;;;;;17.10;99.90;;;;;;5023003;28;20441;-58
2023/08/17 06:54:39;;;;;;;;;;;17.10;99.90;;;;;;5022505;28;19921;-59
2023/08/17 06:57:05;;;;;;;;;;;17.00;99.90;;;;;;5004780;28;19980;-59
2023/08/17 06:59:33;;;;;;;;;;;17.10;99.90;;;;;;4998248;28;25116;-58
2023/08/17 07:01:58;;;;;;;;;;;17.10;99.90;;;;;;4997717;28;25152;-59
2023/08/17 07:04:24;;;;;;;;;;;17.20;99.90;;;;;;5003127;28;24103;-59
2023/08/17 07:06:49;;;;;;;;;;;17.10;99.90;;;;;;5001698;28;20009;-59
2023/08/17 07:09:15;;;;;;;;;;;17.20;99.90;;;;;;5002811;28;20323;-59
2023/08/17 07:11:40;;;;;;;;;;;17.20;99.90;;;;;;5002550;28;20193;-59
2023/08/17 07:14:06;;;;;;;;;;;17.20;99.90;;;;;;5003129;28;19925;-59
2023/08/17 07:16:32;;;;;;;;;;;17.20;99.90;;;;;;5002213;28;19964;-59
2023/08/17 07:18:57;;;;;;;;;;;17.20;99.90;;;;;;5001519;28;19929;-59
2023/08/17 07:21:23;;;;;;;;;;;17.30;99.90;;;;;;5002564;28;19921;-59
2023/08/17 07:23:49;;;;;;;;;;;17.30;99.90;;;;;;5003662;28;19925;-59
2023/08/17 07:26:14;;;;;;;;;;;17.30;99.90;;;;;;5002143;28;19964;-59
2023/08/17 07:28:40;;;;;;;;;;;17.40;99.90;;;;;;5002929;28;20097;-59
2023/08/17 07:31:05;;;;;;;;;;;17.50;99.90;;;;;;5003615;28;19921;-59
2023/08/17 07:33:31;;;;;;;;;;;17.60;99.90;;;;;;5003271;28;19927;-59
2023/08/17 07:35:58;;;;;;;5.53;1.60;;;17.70;99.90;;;;;;5004140;28;19921;-57
2023/08/17 07:38:24;;;;;;;4.85;1.33;;;17.60;99.90;;;;;;5003381;28;20127;-59
2023/08/17 07:40:49;;;;;;;4.45;1.20;;;17.80;99.90;;;;;;5010633;28;20072;-57
2023/08/17 07:43:15;;;;;;;5.45;1.25;;;17.70;99.90;;;;;;5011717;28;20650;-57
2023/08/17 07:45:41;;;;;;;5.00;1.30;;;17.80;99.90;;;;;;5023091;28;20120;-58
2023/08/17 07:48:06;;;;;;;5.28;1.70;;;17.70;99.90;;;;;;5007028;28;20050;-57
2023/08/17 07:50:32;;;;;;;6.30;1.50;;;17.80;99.90;;;;;;5010251;28;20049;-57
2023/08/17 07:52:57;;;;;;;4.25;1.10;;;17.80;99.90;;;;;;4999148;28;20049;-57
2023/08/17 07:55:23;;;;;;;3.00;1.35;;;17.80;99.90;;;;;;4996347;28;20069;-56
2023/08/17 07:57:49;;;;;;;2.22;1.10;;;17.80;99.90;;;;;;5003936;28;20050;-57
2023/08/17 08:00:15;;;;;;;3.92;1.50;;;17.80;99.90;;;;;;5003111;28;20042;-57
2023/08/17 08:02:40;;;;;;;3.55;1.30;;;17.70;99.90;;;;;;5005222;28;20187;-57
2023/08/17 08:05:06;;;;;;;4.78;1.20;;;17.70;99.90;;;;;;4993995;28;20128;-57
2023/08/17 08:07:32;;;;;;;4.45;0.95;;;17.70;99.90;;;;;;4999574;28;20050;-58
2023/08/17 08:09:57;;;;;;;4.88;1.10;;;17.70;99.90;;;;;;4994611;28;20034;-58
2023/08/17 08:12:23;;;;;;;4.78;1.40;;;17.70;99.90;;;;;;4993575;28;20038;-58
2023/08/17 08:14:50;;;;;;;4.35;1.15;;;17.60;99.90;;;;;;4987672;28;20031;-57
2023/08/17 08:17:16;;;;;;;5.22;1.25;;;17.70;99.90;;;;;;4989177;28;20069;-58
2023/08/17 08:19:42;;;;;;;4.85;1.20;;;17.80;99.90;;;;;;4999776;28;20038;-57
2023/08/17 08:22:07;;;;;;;4.70;1.27;;;17.80;99.90;;;;;;5019405;28;20052;-57
2023/08/17 08:24:34;;;;;;;4.40;1.30;;;17.80;99.90;;;;;;5011019;28;20042;-58
2023/08/17 08:27:01;;;;;;;5.10;1.20;;;18.00;99.90;;;;;;4998163;28;20045;-57
2023/08/17 08:29:27;;;;;;;4.57;1.30;;;18.00;99.90;;;;;;4997315;28;20108;-57
2023/08/17 08:31:53;;;;;;;7.53;1.50;;;18.10;99.90;;;;;;5019847;28;20053;-58
2023/08/17 08:34:18;;;;;;;4.35;1.73;;;18.30;99.90;;;;;;5025081;28;20041;-57
2023/08/17 08:36:44;;;;;;;9.50;1.80;;;18.40;99.90;;;;;;5023451;28;20042;-57
2023/08/17 08:39:12;;;;;;;3.35;1.10;;;18.50;99.90;;;;;;5007060;28;20201;-57
2023/08/17 08:41:38;;;;;;;4.00;1.25;;;18.50;99.90;;;;;;5019841;28;20052;-58
2023/08/17 08:44:04;;;;;;;4.97;1.80;;;18.60;99.90;;;;;;5006731;28;20054;-59
2023/08/17 08:46:32;;;;;;;7.82;1.40;;;18.70;99.90;;;;;;4998649;28;20444;-58
2023/08/17 08:48:58;;;;;;;5.30;1.58;;;18.70;99.90;;;;;;4997205;28;20045;-58
2023/08/17 08:51:30;;;;;;;5.40;1.30;;;18.70;99.90;;;;;;4995946;28;20038;-58
2023/08/17 08:54:03;;;;;;;6.78;1.50;;;18.60;99.90;;;;;;4998703;28;20077;-58
2023/08/17 08:56:32;;;;;;;4.13;1.08;;;18.60;99.90;;;;;;4997879;28;20038;-57
2023/08/17 08:59:01;;;;;;;4.10;1.10;;;18.50;99.90;;;;;;4994215;28;20168;-58
2023/08/17 09:01:28;;;;;;;3.70;1.42;;;18.50;99.90;;;;;;4998678;28;20118;-58
2023/08/17 09:03:56;;;;;;;5.53;1.15;;;18.50;99.90;;;;;;4995190;28;20050;-58
2023/08/17 09:06:23;;;;;;;2.90;1.10;;;18.50;99.90;;;;;;4996872;28;20037;-58
2023/08/17 09:08:49;;;;;;;4.28;1.00;;;18.50;99.90;;;;;;4994751;28;20421;-58
2023/08/17 09:11:14;;;;;;;3.88;1.15;;;18.60;99.90;;;;;;4995208;28;20064;-58
2023/08/17 09:13:40;;;;;;;1187.40;999.90;;;18.70;99.90;;;;;;4997549;28;20046;-58
2023/08/17 09:16:06;;;;;;;;;;;18.70;99.90;;;;;;5010289;28;19972;-58
2023/08/17 09:18:31;;;;;;;;;;;18.80;99.90;;;;;;4995415;28;19929;-59
2023/08/17 09:20:57;;;;;;;;;;;18.80;99.90;;;;;;4994102;28;25095;-58
2023/08/17 09:23:22;;;;;;;;;;;18.80;99.90;;;;;;4987176;28;25074;-58
2023/08/17 09:25:51;;;;;;;4.78;1.10;;;18.90;99.90;;;;;;5000769;28;25058;-57
2023/08/17 09:28:19;;;;;;;2.97;1.23;;;18.90;99.90;;;;;;4995010;28;20709;-59
2023/08/17 09:30:50;;;;;;;;;;;18.90;99.90;;;;;;4994227;28;20390;-59
2023/08/17 09:33:15;;;;;;;5.15;1.10;;;19.00;99.90;;;;;;4993048;28;20049;-59
2023/08/17 09:35:41;;;;;;;;;;;19.10;99.90;;;;;;4993324;28;20117;-58
2023/08/17 09:38:07;;;;;;;1271.40;999.90;;;19.30;99.90;;;;;;4993380;28;19921;-59
2023/08/17 09:40:33;;;;;;;1270.90;885.80;;;19.20;99.90;;;;;;4995333;28;20513;-56
2023/08/17 09:42:59;;;;;;;3.92;1.40;;;19.40;99.90;;;;;;4996234;28;20092;-59
2023/08/17 09:45:27;;;;;;;3.40;1.05;;;19.40;99.90;;;;;;4996489;28;20041;-58
2023/08/17 09:47:53;;;;;;;3.15;1.10;;;19.50;99.90;;;;;;5000466;28;20054;-58
2023/08/17 09:50:22;;;;;;;452.75;384.45;;;19.50;99.90;;;;;;5004883;28;20117;-58
2023/08/17 09:52:53;;;;;;;794.90;729.95;;;19.60;99.90;;;;;;4998061;28;20397;-58
2023/08/17 09:55:21;;;;;;;795.92;732.13;;;19.60;99.90;;;;;;5004182;28;20100;-57
2023/08/17 09:57:48;;;;;;;;;;;19.70;99.90;;;;;;5007854;28;20049;-59
2023/08/17 10:00:14;;;;;;;825.92;746.67;;;19.80;99.90;;;;;;5007716;28;25063;-58
2023/08/17 10:02:40;;;;;;;5.70;1.55;;;20.10;99.90;;;;;;5007673;28;20127;-59
2023/08/17 10:05:11;;;;;;;560.55;521.95;;;20.30;99.90;;;;;;4995596;28;20043;-59
2023/08/17 10:07:40;;;;;;;517.67;480.85;;;20.50;99.90;;;;;;4994573;28;20543;-59
2023/08/17 10:10:07;;;;;;;856.67;765.70;;;20.70;99.90;;;;;;5006879;28;20075;-55
2023/08/17 10:12:51;;;;;;;3.78;1.63;;;21.10;99.90;;;;;;5004584;28;20049;-57
2023/08/17 10:15:18;;;;;;;;;;;21.10;99.90;;;;;;4998086;28;20041;-56
2023/08/17 10:17:55;;;;;;;4.55;1.50;;;21.30;99.90;;;;;;4995237;28;19933;-57
2023/08/17 10:20:21;;;;;;;4.10;1.50;;;21.40;99.90;;;;;;4993218;28;20038;-57
2023/08/17 10:23:00;;;;;;;6.85;1.70;;;21.40;99.90;;;;;;4995965;28;20128;-56
2023/08/17 10:25:28;;;;;;;223.75;206.10;;;21.40;99.90;;;;;;4992935;28;20416;-57
2023/08/17 10:27:54;;;;;;;3.10;1.40;;;21.30;99.90;;;;;;4995497;28;20073;-56
2023/08/17 10:30:20;;;;;;;4.60;1.80;;;21.30;99.90;;;;;;5002939;28;20507;-57
2023/08/17 10:32:46;;;;;;;2.85;1.10;;;21.50;99.90;;;;;;4992979;28;20037;-58
2023/08/17 10:35:13;;;;;;;3.55;1.42;;;21.90;99.90;;;;;;4994382;28;20038;-58
2023/08/17 10:37:40;;;;;;;3.53;1.42;;;22.10;99.90;;;;;;4994634;28;20050;-58
2023/08/17 10:40:06;;;;;;;3.83;1.50;;;22.00;99.90;;;;;;4992993;28;20042;-58
2023/08/17 10:42:35;;;;;;;5.15;1.33;;;21.80;99.90;;;;;;4995051;28;20042;-60
2023/08/17 10:45:03;;;;;;;7.05;1.83;;;21.70;99.90;;;;;;4994109;28;20451;-57
2023/08/17 10:47:32;;;;;;;4.53;1.40;;;21.60;99.90;;;;;;4994977;28;20076;-57
2023/08/17 10:50:01;;;;;;;5.40;1.48;;;21.50;99.90;;;;;;4994346;28;20072;-58
2023/08/17 10:52:31;;;;;;;6.32;1.85;;;21.50;99.90;;;;;;4992920;28;20047;-57
2023/08/17 10:54:59;;;;;;;3.53;1.52;;;21.50;99.90;;;;;;4994185;28;20046;-58
2023/08/17 10:57:29;;;;;;;4.13;1.73;;;21.50;99.90;;;;;;4994716;28;20046;-56
2023/08/17 11:00:24;;;;;;;4.68;1.40;;;21.50;99.90;;;;;;4995006;28;20187;-57
2023/08/17 11:03:01;;;;;;;4.40;1.70;;;21.40;99.90;;;;;;4992892;28;20045;-57
2023/08/17 11:05:49;;;;;;;929.85;815.92;;;21.30;99.90;;;;;;4996666;28;20119;-56
2023/08/17 11:08:39;;;;;;;64.82;59.28;;;21.20;99.90;;;;;;4994174;28;20057;-57
2023/08/17 11:11:11;;;;;;;481.52;427.13;;;21.10;99.90;;;;;;4995719;28;20624;-57
2023/08/17 11:13:39;;;;;;;3.45;1.73;;;21.00;99.90;;;;;;4992136;28;20050;-58
2023/08/17 11:16:06;;;;;;;3.42;1.60;;;21.10;99.90;;;;;;4984957;28;20042;-58
2023/08/17 11:18:33;;;;;;;3.03;1.65;;;21.20;99.90;;;;;;4985058;28;20046;-57
2023/08/17 11:21:00;;;;;;;9.02;2.20;;;21.20;99.90;;;;;;4983299;28;20078;-56
2023/08/17 11:23:29;;;;;;;8.75;1.90;;;21.30;99.90;;;;;;4983967;28;20080;-58
2023/08/17 11:25:54;;;;;;;4.38;1.52;;;21.40;99.90;;;;;;4984873;28;20046;-57
2023/08/17 11:28:22;;;;;;;3.20;1.70;;;21.40;99.90;;;;;;4985165;28;20050;-58
2023/08/17 11:31:00;;;;;;;8.95;1.70;;;21.40;99.90;;;;;;4984875;28;20375;-57
2023/08/17 11:33:26;;;;;;;5.32;1.67;;;21.40;99.90;;;;;;4984388;28;20054;-58
2023/08/17 11:36:01;;;;;;;4.05;1.83;;;21.30;99.90;;;;;;4982917;28;20061;-56
2023/08/17 11:38:32;;;;;;;5.03;1.92;;;21.20;99.90;;;;;;4985446;28;20050;-58
2023/08/17 11:40:58;;;;;;;4.68;1.75;;;21.30;99.90;;;;;;4984772;28;20058;-57
2023/08/17 11:43:25;;;;;;;6.22;1.90;;;21.60;99.90;;;;;;4984542;28;20433;-57
2023/08/17 11:45:51;;;;;;;8.90;1.70;;;22.00;99.90;;;;;;4991344;28;20053;-57
2023/08/17 11:48:19;;;;;;;4.50;1.70;;;22.30;99.90;;;;;;5023481;28;20045;-56
2023/08/17 11:50:45;;;;;;;6.43;1.98;;;22.60;99.90;;;;;;5023801;28;20045;-59
2023/08/17 11:53:10;;;;;;;4.50;1.50;;;22.70;99.90;;;;;;5043878;28;20595;-59
2023/08/17 11:55:36;;;;;;;5.53;1.80;;;22.70;99.90;;;;;;5021147;28;20034;-59
2023/08/17 11:58:03;;;;;;;3.65;2.00;;;22.60;99.90;;;;;;5007544;28;20049;-58
2023/08/17 12:00:40;;;;;;;4.72;1.58;;;22.70;99.90;;;;;;5008848;28;20046;-60
2023/08/17 12:03:06;;;;;;;4.78;1.80;;;22.70;99.90;;;;;;5007768;28;20045;-60
2023/08/17 12:05:32;;;;;;;3.30;1.70;;;22.70;99.90;;;;;;5007664;28;20045;-60
2023/08/17 12:08:02;;;;;;;3.58;1.70;;;22.60;99.90;;;;;;5007491;28;20066;-60
2023/08/17 12:10:28;;;;;;;4.03;1.70;;;22.50;99.90;;;;;;5007470;28;20041;-60
2023/08/17 12:12:58;;;;;;;3.10;2.08;;;22.30;99.90;;;;;;5007410;28;20119;-60
2023/08/17 12:15:24;;;;;;;4.57;1.80;;;22.30;99.90;;;;;;5023229;28;20124;-59
2023/08/17 12:17:52;;;;;;;7.35;2.25;;;22.20;99.90;;;;;;5007066;28;20050;-59
2023/08/17 12:20:19;;;;;;;4.93;2.42;;;22.20;99.90;;;;;;5006631;28;20049;-59
2023/08/17 12:22:46;;;;;;;6.25;2.17;;;22.20;99.90;;;;;;5008284;28;20045;-58
2023/08/17 12:25:12;;;;;;;6.30;2.10;;;22.20;99.90;;;;;;5007562;28;20076;-55
2023/08/17 12:27:39;;;;;;;7.20;2.40;;;22.30;99.90;;;;;;5015439;28;20633;-57
2023/08/17 12:30:11;;;;;;;3.45;2.05;;;22.40;99.90;;;;;;5006289;28;20050;-58
2023/08/17 12:32:36;;;;;;;6.25;2.20;;;22.40;99.90;;;;;;4994585;28;20049;-56
2023/08/17 12:35:03;;;;;;;4.05;2.20;;;22.40;99.90;;;;;;5010773;28;20103;-58
2023/08/17 12:37:29;;;;;;;4.95;2.00;;;22.40;99.90;;;;;;5025822;28;20128;-56
2023/08/17 12:39:54;;;;;;;4.07;2.00;;;22.30;99.90;;;;;;5022176;28;20481;-56
2023/08/17 12:42:20;;;;;;;4.90;2.35;;;22.20;99.90;;;;;;5011578;28;20083;-56
2023/08/17 12:44:46;;;;;;;3.55;1.88;;;22.00;99.90;;;;;;4999944;28;20037;-55
2023/08/17 12:47:11;;;;;;;4.05;2.28;;;21.80;99.90;;;;;;5019535;28;20049;-58
2023/08/17 12:49:37;;;;;;;6.82;3.00;;;21.70;99.90;;;;;;5017546;28;20100;-56
2023/08/17 12:52:03;;;;;;;5.30;2.58;;;21.50;99.90;;;;;;4991864;28;20485;-56